La Baie, Canada
Current Conditions -  °F | °C
As of 5:00 AM on Monday 20 Oct 2014 (Local Time) from CYBG Reporting Station
Overcast Overcast  
Wind Chill: 26°   Ceiling: 2800
Heat Index: 34°   Visibility: 15mi
Dew Point: 27°   Wind: 10mph
Humidity: 75%   Direction: 290°WNW
Pressure: 29.83"   Gusts: 17mph
Location:  48.34°N, 70.88°W
Report Text: CYBG 200900Z 29009G15KT 15SM OVC028 01/M03 A2983 RMK SC8 SLP107
Loading
Personal Weather Stations






























Interactive Weather Map
Tropical Storm Tracking
New forecast layout! Learn more

10-Day Weather Forecast

Advertisements
Track Severe Weather on mobile